sensor_id;sensor_type;location;lat;lon;timestamp;temperature;humidity
65536;DHT22;52145;49.342;9.116;2023-04-12T00:00:11;8.20;99.90
65536;DHT22;52145;49.342;9.116;2023-04-12T00:02:38;8.10;99.90
65536;DHT22;52145;49.342;9.116;2023-04-12T00:05:04;8.20;99.90
65536;DHT22;52145;49.342;9.116;2023-04-12T00:07:30;8.20;99.90
65536;DHT22;52145;49.342;9.116;2023-04-12T00:09:55;8.20;99.90
65536;DHT22;52145;49.342;9.116;2023-04-12T00:12:21;8.20;99.90
65536;DHT22;52145;49.342;9.116;2023-04-12T00:14:47;8.10;99.90
65536;DHT22;52145;49.342;9.116;2023-04-12T00:17:12;8.00;99.90
65536;DHT22;52145;49.342;9.116;2023-04-12T00:19:38;8.00;99.90
65536;DHT22;52145;49.342;9.116;2023-04-12T00:22:10;8.00;99.90
65536;DHT22;52145;49.342;9.116;2023-04-12T00:24:40;8.10;99.90
65536;DHT22;52145;49.342;9.116;2023-04-12T00:27:05;8.20;99.90
65536;DHT22;52145;49.342;9.116;2023-04-12T00:29:32;8.30;99.90
65536;DHT22;52145;49.342;9.116;2023-04-12T00:31:58;8.20;99.90
65536;DHT22;52145;49.342;9.116;2023-04-12T00:34:26;8.20;99.90
65536;DHT22;52145;49.342;9.116;2023-04-12T00:36:52;8.20;99.90
65536;DHT22;52145;49.342;9.116;2023-04-12T00:39:17;8.20;99.90
65536;DHT22;52145;49.342;9.116;2023-04-12T00:41:43;8.20;99.90
65536;DHT22;52145;49.342;9.116;2023-04-12T00:44:08;8.10;99.90
65536;DHT22;52145;49.342;9.116;2023-04-12T00:46:34;8.20;99.90
65536;DHT22;52145;49.342;9.116;2023-04-12T00:49:01;8.10;99.90
65536;DHT22;52145;49.342;9.116;2023-04-12T00:51:27;8.10;99.90
65536;DHT22;52145;49.342;9.116;2023-04-12T00:53:58;8.10;99.90
65536;DHT22;52145;49.342;9.116;2023-04-12T00:56:24;8.20;99.90
65536;DHT22;52145;49.342;9.116;2023-04-12T00:58:52;8.10;99.90
65536;DHT22;52145;49.342;9.116;2023-04-12T01:01:17;8.10;99.90
65536;DHT22;52145;49.342;9.116;2023-04-12T01:03:44;8.10;99.90
65536;DHT22;52145;49.342;9.116;2023-04-12T01:06:39;8.20;99.90
65536;DHT22;52145;49.342;9.116;2023-04-12T01:09:13;8.30;99.90
65536;DHT22;52145;49.342;9.116;2023-04-12T01:11:44;8.30;99.90
65536;DHT22;52145;49.342;9.116;2023-04-12T01:17:04;8.10;99.90
65536;DHT22;52145;49.342;9.116;2023-04-12T01:27:55;8.20;99.90
65536;DHT22;52145;49.342;9.116;2023-04-12T01:30:21;8.20;99.90
65536;DHT22;52145;49.342;9.116;2023-04-12T01:32:52;8.20;99.90
65536;DHT22;52145;49.342;9.116;2023-04-12T01:35:20;8.20;99.90
65536;DHT22;52145;49.342;9.116;2023-04-12T01:37:47;8.20;99.90
65536;DHT22;52145;49.342;9.116;2023-04-12T01:40:12;8.20;99.90
65536;DHT22;52145;49.342;9.116;2023-04-12T01:42:38;8.20;99.90
65536;DHT22;52145;49.342;9.116;2023-04-12T01:45:04;8.20;99.90
65536;DHT22;52145;49.342;9.116;2023-04-12T01:47:32;8.10;99.90
65536;DHT22;52145;49.342;9.116;2023-04-12T01:50:20;8.00;99.90
65536;DHT22;52145;49.342;9.116;2023-04-12T01:53:02;8.00;99.90
65536;DHT22;52145;49.342;9.116;2023-04-12T01:55:30;7.90;99.90
65536;DHT22;52145;49.342;9.116;2023-04-12T01:57:58;7.90;99.90
65536;DHT22;52145;49.342;9.116;2023-04-12T02:00:26;7.90;99.90
65536;DHT22;52145;49.342;9.116;2023-04-12T02:02:52;8.00;99.90
65536;DHT22;52145;49.342;9.116;2023-04-12T02:05:18;8.00;99.90
65536;DHT22;52145;49.342;9.116;2023-04-12T02:07:45;8.00;99.90
65536;DHT22;52145;49.342;9.116;2023-04-12T02:10:14;8.00;99.90
65536;DHT22;52145;49.342;9.116;2023-04-12T02:12:40;8.10;99.90
65536;DHT22;52145;49.342;9.116;2023-04-12T02:15:06;8.00;99.90
65536;DHT22;52145;49.342;9.116;2023-04-12T02:17:32;8.00;99.90
65536;DHT22;52145;49.342;9.116;2023-04-12T02:20:00;8.00;99.90
65536;DHT22;52145;49.342;9.116;2023-04-12T02:22:26;8.00;99.90
65536;DHT22;52145;49.342;9.116;2023-04-12T02:24:51;8.10;99.90
65536;DHT22;52145;49.342;9.116;2023-04-12T02:27:17;8.10;99.90
65536;DHT22;52145;49.342;9.116;2023-04-12T02:29:43;8.10;99.90
65536;DHT22;52145;49.342;9.116;2023-04-12T02:32:09;8.10;99.90
65536;DHT22;52145;49.342;9.116;2023-04-12T02:34:35;8.10;99.90
65536;DHT22;52145;49.342;9.116;2023-04-12T02:37:02;8.10;99.90
65536;DHT22;52145;49.342;9.116;2023-04-12T02:39:29;8.10;99.90
65536;DHT22;52145;49.342;9.116;2023-04-12T02:41:56;8.10;99.90
65536;DHT22;52145;49.342;9.116;2023-04-12T02:44:22;8.20;99.90
65536;DHT22;52145;49.342;9.116;2023-04-12T02:46:47;8.20;99.90
65536;DHT22;52145;49.342;9.116;2023-04-12T02:49:13;8.20;99.90
65536;DHT22;52145;49.342;9.116;2023-04-12T02:51:38;8.20;99.90
65536;DHT22;52145;49.342;9.116;2023-04-12T02:54:04;8.20;99.90
65536;DHT22;52145;49.342;9.116;2023-04-12T02:56:30;8.10;99.90
65536;DHT22;52145;49.342;9.116;2023-04-12T02:58:55;8.10;99.90
65536;DHT22;52145;49.342;9.116;2023-04-12T03:01:21;8.10;99.90
65536;DHT22;52145;49.342;9.116;2023-04-12T03:03:47;8.10;99.90
65536;DHT22;52145;49.342;9.116;2023-04-12T03:06:12;8.10;99.90
65536;DHT22;52145;49.342;9.116;2023-04-12T03:08:38;8.10;99.90
65536;DHT22;52145;49.342;9.116;2023-04-12T03:11:04;8.10;99.90
65536;DHT22;52145;49.342;9.116;2023-04-12T03:13:29;8.00;99.90
65536;DHT22;52145;49.342;9.116;2023-04-12T03:15:57;8.10;99.90
65536;DHT22;52145;49.342;9.116;2023-04-12T03:18:23;8.10;99.90
65536;DHT22;52145;49.342;9.116;2023-04-12T03:20:49;8.20;99.90
65536;DHT22;52145;49.342;9.116;2023-04-12T03:23:16;8.30;99.90
65536;DHT22;52145;49.342;9.116;2023-04-12T03:25:42;8.30;99.90
65536;DHT22;52145;49.342;9.116;2023-04-12T03:28:09;8.10;99.90
65536;DHT22;52145;49.342;9.116;2023-04-12T03:30:34;8.20;99.90
65536;DHT22;52145;49.342;9.116;2023-04-12T03:33:00;8.20;99.90
65536;DHT22;52145;49.342;9.116;2023-04-12T03:35:25;8.20;99.90
65536;DHT22;52145;49.342;9.116;2023-04-12T03:37:51;8.30;99.90
65536;DHT22;52145;49.342;9.116;2023-04-12T03:40:16;8.30;99.90
65536;DHT22;52145;49.342;9.116;2023-04-12T03:42:42;8.30;99.90
65536;DHT22;52145;49.342;9.116;2023-04-12T03:45:08;8.30;99.90
65536;DHT22;52145;49.342;9.116;2023-04-12T03:47:33;8.20;99.90
65536;DHT22;52145;49.342;9.116;2023-04-12T03:50:06;8.30;99.90
65536;DHT22;52145;49.342;9.116;2023-04-12T03:52:32;8.20;99.90
65536;DHT22;52145;49.342;9.116;2023-04-12T03:54:58;8.30;99.90
65536;DHT22;52145;49.342;9.116;2023-04-12T03:57:23;8.20;99.90
65536;DHT22;52145;49.342;9.116;2023-04-12T03:59:49;8.20;99.90
65536;DHT22;52145;49.342;9.116;2023-04-12T04:02:16;8.30;99.90
65536;DHT22;52145;49.342;9.116;2023-04-12T04:04:41;8.30;99.90
65536;DHT22;52145;49.342;9.116;2023-04-12T04:07:07;8.20;99.90
65536;DHT22;52145;49.342;9.116;2023-04-12T04:09:33;8.20;99.90
65536;DHT22;52145;49.342;9.116;2023-04-12T04:11:58;8.20;99.90
65536;DHT22;52145;49.342;9.116;2023-04-12T04:14:25;8.30;99.90
65536;DHT22;52145;49.342;9.116;2023-04-12T04:16:51;8.20;99.90
65536;DHT22;52145;49.342;9.116;2023-04-12T04:19:17;8.30;99.90
65536;DHT22;52145;49.342;9.116;2023-04-12T04:21:43;8.30;99.90
65536;DHT22;52145;49.342;9.116;2023-04-12T04:24:09;8.30;99.90
65536;DHT22;52145;49.342;9.116;2023-04-12T04:26:36;8.30;99.90
65536;DHT22;52145;49.342;9.116;2023-04-12T04:29:02;8.30;99.90
65536;DHT22;52145;49.342;9.116;2023-04-12T04:31:30;8.30;99.90
65536;DHT22;52145;49.342;9.116;2023-04-12T04:34:05;8.30;99.90
65536;DHT22;52145;49.342;9.116;2023-04-12T04:36:32;8.30;99.90
65536;DHT22;52145;49.342;9.116;2023-04-12T04:38:58;8.30;99.90
65536;DHT22;52145;49.342;9.116;2023-04-12T04:41:24;8.30;99.90
65536;DHT22;52145;49.342;9.116;2023-04-12T04:43:50;8.30;99.90
65536;DHT22;52145;49.342;9.116;2023-04-12T04:46:16;8.20;99.90
65536;DHT22;52145;49.342;9.116;2023-04-12T04:48:46;8.20;99.90
65536;DHT22;52145;49.342;9.116;2023-04-12T04:51:12;8.20;99.90
65536;DHT22;52145;49.342;9.116;2023-04-12T04:53:39;8.30;99.90
65536;DHT22;52145;49.342;9.116;2023-04-12T04:56:05;8.20;99.90
65536;DHT22;52145;49.342;9.116;2023-04-12T04:58:31;8.20;99.90
65536;DHT22;52145;49.342;9.116;2023-04-12T05:00:56;8.30;99.90
65536;DHT22;52145;49.342;9.116;2023-04-12T05:03:22;8.20;99.90
65536;DHT22;52145;49.342;9.116;2023-04-12T05:05:48;8.20;99.90
65536;DHT22;52145;49.342;9.116;2023-04-12T05:08:14;8.30;99.90
65536;DHT22;52145;49.342;9.116;2023-04-12T05:10:41;8.30;99.90
65536;DHT22;52145;49.342;9.116;2023-04-12T05:13:06;8.30;99.90
65536;DHT22;52145;49.342;9.116;2023-04-12T05:15:34;8.30;99.90
65536;DHT22;52145;49.342;9.116;2023-04-12T05:18:00;8.30;99.90
65536;DHT22;52145;49.342;9.116;2023-04-12T05:20:25;8.30;99.90
65536;DHT22;52145;49.342;9.116;2023-04-12T05:22:51;8.30;99.90
65536;DHT22;52145;49.342;9.116;2023-04-12T05:25:16;8.40;99.90
65536;DHT22;52145;49.342;9.116;2023-04-12T05:27:43;8.40;99.90
65536;DHT22;52145;49.342;9.116;2023-04-12T05:30:08;8.40;99.90
65536;DHT22;52145;49.342;9.116;2023-04-12T05:32:34;8.40;99.90
65536;DHT22;52145;49.342;9.116;2023-04-12T05:34:59;8.50;99.90
65536;DHT22;52145;49.342;9.116;2023-04-12T05:37:25;8.50;99.90
65536;DHT22;52145;49.342;9.116;2023-04-12T05:39:52;8.40;99.90
65536;DHT22;52145;49.342;9.116;2023-04-12T05:42:18;8.30;99.90
65536;DHT22;52145;49.342;9.116;2023-04-12T05:44:43;8.30;99.90
65536;DHT22;52145;49.342;9.116;2023-04-12T05:47:09;8.30;99.90
65536;DHT22;52145;49.342;9.116;2023-04-12T05:49:35;8.30;99.90
65536;DHT22;52145;49.342;9.116;2023-04-12T05:52:02;8.30;99.90
65536;DHT22;52145;49.342;9.116;2023-04-12T05:54:27;8.30;99.90
65536;DHT22;52145;49.342;9.116;2023-04-12T05:56:53;8.40;99.90
65536;DHT22;52145;49.342;9.116;2023-04-12T05:59:19;8.30;99.90
65536;DHT22;52145;49.342;9.116;2023-04-12T06:01:45;8.30;99.90
65536;DHT22;52145;49.342;9.116;2023-04-12T06:04:10;8.30;99.90
65536;DHT22;52145;49.342;9.116;2023-04-12T06:06:36;8.40;99.90
65536;DHT22;52145;49.342;9.116;2023-04-12T06:09:02;8.40;99.90
65536;DHT22;52145;49.342;9.116;2023-04-12T06:11:29;8.40;99.90
65536;DHT22;52145;49.342;9.116;2023-04-12T06:13:56;8.40;99.90
65536;DHT22;52145;49.342;9.116;2023-04-12T06:16:21;8.40;99.90
65536;DHT22;52145;49.342;9.116;2023-04-12T06:18:47;8.40;99.90
65536;DHT22;52145;49.342;9.116;2023-04-12T06:21:12;8.50;99.90
65536;DHT22;52145;49.342;9.116;2023-04-12T06:23:38;8.50;99.90
65536;DHT22;52145;49.342;9.116;2023-04-12T06:26:04;8.50;99.90
65536;DHT22;52145;49.342;9.116;2023-04-12T06:28:29;8.60;99.90
65536;DHT22;52145;49.342;9.116;2023-04-12T06:30:55;8.60;99.90
65536;DHT22;52145;49.342;9.116;2023-04-12T06:33:20;8.60;99.90
65536;DHT22;52145;49.342;9.116;2023-04-12T06:35:48;8.60;99.90
65536;DHT22;52145;49.342;9.116;2023-04-12T06:38:15;8.60;99.90
65536;DHT22;52145;49.342;9.116;2023-04-12T06:40:41;8.60;99.90
65536;DHT22;52145;49.342;9.116;2023-04-12T06:43:06;8.60;99.90
65536;DHT22;52145;49.342;9.116;2023-04-12T06:45:32;8.70;99.90
65536;DHT22;52145;49.342;9.116;2023-04-12T06:47:57;8.70;99.90
65536;DHT22;52145;49.342;9.116;2023-04-12T06:50:24;8.70;99.90
65536;DHT22;52145;49.342;9.116;2023-04-12T06:52:50;8.70;99.90
65536;DHT22;52145;49.342;9.116;2023-04-12T06:55:16;8.70;99.90
65536;DHT22;52145;49.342;9.116;2023-04-12T06:57:42;8.70;99.90
65536;DHT22;52145;49.342;9.116;2023-04-12T07:00:09;8.70;99.90
65536;DHT22;52145;49.342;9.116;2023-04-12T07:02:35;8.70;99.90
65536;DHT22;52145;49.342;9.116;2023-04-12T07:05:00;8.80;99.90
65536;DHT22;52145;49.342;9.116;2023-04-12T07:07:26;8.90;99.90
65536;DHT22;52145;49.342;9.116;2023-04-12T07:09:51;8.90;99.90
65536;DHT22;52145;49.342;9.116;2023-04-12T07:12:17;8.90;99.90
65536;DHT22;52145;49.342;9.116;2023-04-12T07:14:43;8.90;99.90
65536;DHT22;52145;49.342;9.116;2023-04-12T07:17:08;9.00;99.90
65536;DHT22;52145;49.342;9.116;2023-04-12T07:19:35;9.00;99.90
65536;DHT22;52145;49.342;9.116;2023-04-12T07:22:01;9.10;99.90
65536;DHT22;52145;49.342;9.116;2023-04-12T07:24:26;9.10;99.90
65536;DHT22;52145;49.342;9.116;2023-04-12T07:26:52;9.00;99.90
65536;DHT22;52145;49.342;9.116;2023-04-12T07:29:21;9.00;99.90
65536;DHT22;52145;49.342;9.116;2023-04-12T07:31:46;9.10;99.90
65536;DHT22;52145;49.342;9.116;2023-04-12T07:34:12;9.20;99.90
65536;DHT22;52145;49.342;9.116;2023-04-12T07:36:38;9.20;99.90
65536;DHT22;52145;49.342;9.116;2023-04-12T07:39:03;9.20;99.90
65536;DHT22;52145;49.342;9.116;2023-04-12T07:41:29;9.20;99.90
65536;DHT22;52145;49.342;9.116;2023-04-12T07:43:55;9.20;99.90
65536;DHT22;52145;49.342;9.116;2023-04-12T07:46:20;9.20;99.90
65536;DHT22;52145;49.342;9.116;2023-04-12T07:48:46;9.30;99.90
65536;DHT22;52145;49.342;9.116;2023-04-12T07:51:12;9.30;99.90
65536;DHT22;52145;49.342;9.116;2023-04-12T07:53:37;9.40;99.90
65536;DHT22;52145;49.342;9.116;2023-04-12T07:56:04;9.40;99.90
65536;DHT22;52145;49.342;9.116;2023-04-12T07:58:32;9.60;99.90
65536;DHT22;52145;49.342;9.116;2023-04-12T08:00:58;9.60;99.90
65536;DHT22;52145;49.342;9.116;2023-04-12T08:03:24;9.60;99.90
65536;DHT22;52145;49.342;9.116;2023-04-12T08:05:51;9.80;99.90
65536;DHT22;52145;49.342;9.116;2023-04-12T08:08:18;9.90;99.90
65536;DHT22;52145;49.342;9.116;2023-04-12T08:10:47;10.00;99.90
65536;DHT22;52145;49.342;9.116;2023-04-12T08:13:14;9.90;99.90
65536;DHT22;52145;49.342;9.116;2023-04-12T08:15:40;9.80;99.90
65536;DHT22;52145;49.342;9.116;2023-04-12T08:18:05;9.90;99.90
65536;DHT22;52145;49.342;9.116;2023-04-12T08:20:31;9.90;99.90
65536;DHT22;52145;49.342;9.116;2023-04-12T08:22:57;10.00;99.90
65536;DHT22;52145;49.342;9.116;2023-04-12T08:25:22;10.00;99.90
65536;DHT22;52145;49.342;9.116;2023-04-12T08:27:49;9.90;99.90
65536;DHT22;52145;49.342;9.116;2023-04-12T08:30:16;9.90;99.90
65536;DHT22;52145;49.342;9.116;2023-04-12T08:32:42;10.00;99.90
65536;DHT22;52145;49.342;9.116;2023-04-12T08:35:08;10.10;99.90
65536;DHT22;52145;49.342;9.116;2023-04-12T08:37:34;10.20;99.90
65536;DHT22;52145;49.342;9.116;2023-04-12T08:40:05;10.10;99.90
65536;DHT22;52145;49.342;9.116;2023-04-12T08:42:33;10.20;99.90
65536;DHT22;52145;49.342;9.116;2023-04-12T08:45:04;10.10;99.90
65536;DHT22;52145;49.342;9.116;2023-04-12T08:47:32;10.20;99.90
65536;DHT22;52145;49.342;9.116;2023-04-12T08:50:00;10.20;99.90
65536;DHT22;52145;49.342;9.116;2023-04-12T08:52:27;10.30;99.90
65536;DHT22;52145;49.342;9.116;2023-04-12T08:54:54;10.60;99.90
65536;DHT22;52145;49.342;9.116;2023-04-12T08:57:20;10.90;99.90
65536;DHT22;52145;49.342;9.116;2023-04-12T08:59:48;10.80;99.90
65536;DHT22;52145;49.342;9.116;2023-04-12T09:02:14;10.90;99.90
65536;DHT22;52145;49.342;9.116;2023-04-12T09:04:49;10.90;99.90
65536;DHT22;52145;49.342;9.116;2023-04-12T09:07:16;11.20;99.90
65536;DHT22;52145;49.342;9.116;2023-04-12T09:09:43;11.30;99.90
65536;DHT22;52145;49.342;9.116;2023-04-12T09:12:10;11.30;99.90
65536;DHT22;52145;49.342;9.116;2023-04-12T09:14:37;11.20;99.90
65536;DHT22;52145;49.342;9.116;2023-04-12T09:17:03;11.40;99.90
65536;DHT22;52145;49.342;9.116;2023-04-12T09:19:35;11.30;99.90
65536;DHT22;52145;49.342;9.116;2023-04-12T09:22:01;11.40;99.90
65536;DHT22;52145;49.342;9.116;2023-04-12T09:24:28;11.40;99.90
65536;DHT22;52145;49.342;9.116;2023-04-12T09:27:01;11.20;99.90
65536;DHT22;52145;49.342;9.116;2023-04-12T09:29:27;11.20;99.90
65536;DHT22;52145;49.342;9.116;2023-04-12T09:32:24;11.20;99.90
65536;DHT22;52145;49.342;9.116;2023-04-12T09:34:55;11.40;99.90
65536;DHT22;52145;49.342;9.116;2023-04-12T09:37:21;11.40;99.90
65536;DHT22;52145;49.342;9.116;2023-04-12T09:40:01;11.50;99.90
65536;DHT22;52145;49.342;9.116;2023-04-12T09:42:27;11.50;99.90
65536;DHT22;52145;49.342;9.116;2023-04-12T09:44:54;11.50;99.90
65536;DHT22;52145;49.342;9.116;2023-04-12T09:47:20;11.30;99.90
65536;DHT22;52145;49.342;9.116;2023-04-12T09:49:46;11.50;99.90
65536;DHT22;52145;49.342;9.116;2023-04-12T09:52:13;11.60;99.90
65536;DHT22;52145;49.342;9.116;2023-04-12T09:54:46;11.80;99.90
65536;DHT22;52145;49.342;9.116;2023-04-12T09:57:20;11.80;99.90
65536;DHT22;52145;49.342;9.116;2023-04-12T09:59:48;11.80;99.90
65536;DHT22;52145;49.342;9.116;2023-04-12T10:02:23;11.70;99.90
65536;DHT22;52145;49.342;9.116;2023-04-12T10:04:50;11.60;99.90
65536;DHT22;52145;49.342;9.116;2023-04-12T10:07:17;11.70;99.90
65536;DHT22;52145;49.342;9.116;2023-04-12T10:09:43;11.70;99.90
65536;DHT22;52145;49.342;9.116;2023-04-12T10:12:09;11.70;99.90
65536;DHT22;52145;49.342;9.116;2023-04-12T10:14:36;11.90;99.90
65536;DHT22;52145;49.342;9.116;2023-04-12T10:17:03;12.00;99.90
65536;DHT22;52145;49.342;9.116;2023-04-12T10:19:30;12.10;99.90
65536;DHT22;52145;49.342;9.116;2023-04-12T10:21:56;12.10;99.90
65536;DHT22;52145;49.342;9.116;2023-04-12T10:24:23;12.20;99.90
65536;DHT22;52145;49.342;9.116;2023-04-12T10:26:50;12.20;99.90
65536;DHT22;52145;49.342;9.116;2023-04-12T10:29:31;12.10;99.90
65536;DHT22;52145;49.342;9.116;2023-04-12T10:32:23;12.20;99.90
65536;DHT22;52145;49.342;9.116;2023-04-12T10:34:57;12.30;99.90
65536;DHT22;52145;49.342;9.116;2023-04-12T10:37:58;12.20;99.90
65536;DHT22;52145;49.342;9.116;2023-04-12T10:40:25;12.10;99.90
65536;DHT22;52145;49.342;9.116;2023-04-12T10:43:23;12.20;99.90
65536;DHT22;52145;49.342;9.116;2023-04-12T10:45:49;12.10;99.90
65536;DHT22;52145;49.342;9.116;2023-04-12T10:48:55;12.20;99.90
65536;DHT22;52145;49.342;9.116;2023-04-12T10:51:24;12.30;99.90
65536;DHT22;52145;49.342;9.116;2023-04-12T10:53:52;12.50;99.90
65536;DHT22;52145;49.342;9.116;2023-04-12T10:58:58;12.50;99.90
65536;DHT22;52145;49.342;9.116;2023-04-12T11:01:24;12.30;99.90
65536;DHT22;52145;49.342;9.116;2023-04-12T11:09:29;12.60;99.90
65536;DHT22;52145;49.342;9.116;2023-04-12T11:19:40;12.80;99.90
65536;DHT22;52145;49.342;9.116;2023-04-12T11:22:08;12.90;99.90
65536;DHT22;52145;49.342;9.116;2023-04-12T11:24:47;12.90;99.90
65536;DHT22;52145;49.342;9.116;2023-04-12T11:27:13;13.00;99.90
65536;DHT22;52145;49.342;9.116;2023-04-12T11:29:40;13.00;99.90
65536;DHT22;52145;49.342;9.116;2023-04-12T11:32:10;13.00;99.90
65536;DHT22;52145;49.342;9.116;2023-04-12T11:34:41;13.10;99.90
65536;DHT22;52145;49.342;9.116;2023-04-12T11:37:07;13.20;99.90
65536;DHT22;52145;49.342;9.116;2023-04-12T11:39:37;13.40;99.90
65536;DHT22;52145;49.342;9.116;2023-04-12T11:42:03;13.40;99.90
65536;DHT22;52145;49.342;9.116;2023-04-12T11:44:31;13.30;99.90
65536;DHT22;52145;49.342;9.116;2023-04-12T11:46:57;13.30;99.90
65536;DHT22;52145;49.342;9.116;2023-04-12T11:49:23;13.20;99.90
65536;DHT22;52145;49.342;9.116;2023-04-12T11:51:56;13.20;99.90
65536;DHT22;52145;49.342;9.116;2023-04-12T11:54:27;13.30;99.90
65536;DHT22;52145;49.342;9.116;2023-04-12T11:56:56;13.50;99.90
65536;DHT22;52145;49.342;9.116;2023-04-12T11:59:22;13.80;99.90
65536;DHT22;52145;49.342;9.116;2023-04-12T12:01:51;13.80;99.90
65536;DHT22;52145;49.342;9.116;2023-04-12T12:04:17;13.50;99.90
65536;DHT22;52145;49.342;9.116;2023-04-12T12:06:43;13.60;99.90
65536;DHT22;52145;49.342;9.116;2023-04-12T12:09:09;13.30;99.90
65536;DHT22;52145;49.342;9.116;2023-04-12T12:11:35;13.20;99.90
65536;DHT22;52145;49.342;9.116;2023-04-12T12:14:01;13.30;99.90
65536;DHT22;52145;49.342;9.116;2023-04-12T12:16:28;13.30;99.90
65536;DHT22;52145;49.342;9.116;2023-04-12T12:18:54;13.40;99.90
65536;DHT22;52145;49.342;9.116;2023-04-12T12:21:20;13.80;99.90
65536;DHT22;52145;49.342;9.116;2023-04-12T12:23:47;13.60;99.90
65536;DHT22;52145;49.342;9.116;2023-04-12T12:26:24;13.70;99.90
65536;DHT22;52145;49.342;9.116;2023-04-12T12:28:54;13.70;99.90
65536;DHT22;52145;49.342;9.116;2023-04-12T12:31:22;13.90;99.90
65536;DHT22;52145;49.342;9.116;2023-04-12T12:33:48;13.80;99.90
65536;DHT22;52145;49.342;9.116;2023-04-12T12:36:18;13.90;99.90
65536;DHT22;52145;49.342;9.116;2023-04-12T12:38:47;13.90;99.90
65536;DHT22;52145;49.342;9.116;2023-04-12T12:41:17;14.10;99.90
65536;DHT22;52145;49.342;9.116;2023-04-12T12:43:44;14.30;99.90
65536;DHT22;52145;49.342;9.116;2023-04-12T12:46:10;14.30;99.90
65536;DHT22;52145;49.342;9.116;2023-04-12T12:48:41;14.50;99.90
65536;DHT22;52145;49.342;9.116;2023-04-12T12:51:08;14.70;99.90
65536;DHT22;52145;49.342;9.116;2023-04-12T12:53:35;14.70;99.90
65536;DHT22;52145;49.342;9.116;2023-04-12T12:56:01;14.70;99.90
65536;DHT22;52145;49.342;9.116;2023-04-12T12:58:27;14.70;99.90
65536;DHT22;52145;49.342;9.116;2023-04-12T13:00:53;14.50;99.90
65536;DHT22;52145;49.342;9.116;2023-04-12T13:03:19;14.10;99.90
65536;DHT22;52145;49.342;9.116;2023-04-12T13:05:44;13.90;99.90
65536;DHT22;52145;49.342;9.116;2023-04-12T13:08:10;14.00;99.90
65536;DHT22;52145;49.342;9.116;2023-04-12T13:10:35;14.00;99.90
65536;DHT22;52145;49.342;9.116;2023-04-12T13:13:02;14.00;99.90
65536;DHT22;52145;49.342;9.116;2023-04-12T13:15:27;14.00;99.90
65536;DHT22;52145;49.342;9.116;2023-04-12T13:17:53;13.80;99.90
65536;DHT22;52145;49.342;9.116;2023-04-12T13:20:21;13.80;99.90
65536;DHT22;52145;49.342;9.116;2023-04-12T13:22:47;13.80;99.90
65536;DHT22;52145;49.342;9.116;2023-04-12T13:25:13;13.90;99.90
65536;DHT22;52145;49.342;9.116;2023-04-12T13:27:38;14.00;99.90
65536;DHT22;52145;49.342;9.116;2023-04-12T13:30:04;14.10;99.90
65536;DHT22;52145;49.342;9.116;2023-04-12T13:32:30;14.40;99.90
65536;DHT22;52145;49.342;9.116;2023-04-12T13:34:56;14.60;99.90
65536;DHT22;52145;49.342;9.116;2023-04-12T13:37:21;14.70;99.90
65536;DHT22;52145;49.342;9.116;2023-04-12T13:39:48;15.00;99.90
65536;DHT22;52145;49.342;9.116;2023-04-12T13:42:14;15.00;99.90
65536;DHT22;52145;49.342;9.116;2023-04-12T13:44:39;15.10;99.90
65536;DHT22;52145;49.342;9.116;2023-04-12T13:47:05;14.90;99.90
65536;DHT22;52145;49.342;9.116;2023-04-12T13:49:30;14.80;99.90
65536;DHT22;52145;49.342;9.116;2023-04-12T13:51:56;14.80;99.90
65536;DHT22;52145;49.342;9.116;2023-04-12T13:54:21;14.80;99.90
65536;DHT22;52145;49.342;9.116;2023-04-12T13:56:47;14.90;99.90
65536;DHT22;52145;49.342;9.116;2023-04-12T13:59:13;14.70;99.90
65536;DHT22;52145;49.342;9.116;2023-04-12T14:01:39;14.30;99.90
65536;DHT22;52145;49.342;9.116;2023-04-12T14:04:05;14.20;99.90
65536;DHT22;52145;49.342;9.116;2023-04-12T14:06:31;14.10;99.90
65536;DHT22;52145;49.342;9.116;2023-04-12T14:08:57;14.00;99.90
65536;DHT22;52145;49.342;9.116;2023-04-12T14:11:23;13.80;99.90
65536;DHT22;52145;49.342;9.116;2023-04-12T14:13:49;13.60;99.90
65536;DHT22;52145;49.342;9.116;2023-04-12T14:16:15;13.50;99.90
65536;DHT22;52145;49.342;9.116;2023-04-12T14:18:40;13.40;99.90
65536;DHT22;52145;49.342;9.116;2023-04-12T14:21:08;13.30;99.90
65536;DHT22;52145;49.342;9.116;2023-04-12T14:23:33;13.30;99.90
65536;DHT22;52145;49.342;9.116;2023-04-12T14:25:59;13.40;99.90
65536;DHT22;52145;49.342;9.116;2023-04-12T14:28:24;13.40;99.90
65536;DHT22;52145;49.342;9.116;2023-04-12T14:30:58;13.40;99.90
65536;DHT22;52145;49.342;9.116;2023-04-12T14:33:25;13.40;99.90
65536;DHT22;52145;49.342;9.116;2023-04-12T14:35:50;13.20;99.90
65536;DHT22;52145;49.342;9.116;2023-04-12T14:38:18;13.10;99.90
65536;DHT22;52145;49.342;9.116;2023-04-12T14:40:43;12.90;99.90
65536;DHT22;52145;49.342;9.116;2023-04-12T14:43:09;12.80;99.90
65536;DHT22;52145;49.342;9.116;2023-04-12T14:45:36;12.60;99.90
65536;DHT22;52145;49.342;9.116;2023-04-12T14:48:01;12.50;99.90
65536;DHT22;52145;49.342;9.116;2023-04-12T14:50:27;12.30;99.90
65536;DHT22;52145;49.342;9.116;2023-04-12T14:52:52;12.00;99.90
65536;DHT22;52145;49.342;9.116;2023-04-12T14:55:18;11.80;99.90
65536;DHT22;52145;49.342;9.116;2023-04-12T14:57:44;11.50;99.90
65536;DHT22;52145;49.342;9.116;2023-04-12T15:00:10;11.20;99.90
65536;DHT22;52145;49.342;9.116;2023-04-12T15:02:41;11.00;99.90
65536;DHT22;52145;49.342;9.116;2023-04-12T15:05:08;10.90;99.90
65536;DHT22;52145;49.342;9.116;2023-04-12T15:07:34;10.70;99.90
65536;DHT22;52145;49.342;9.116;2023-04-12T15:10:00;10.70;99.90
65536;DHT22;52145;49.342;9.116;2023-04-12T15:12:26;10.70;99.90
65536;DHT22;52145;49.342;9.116;2023-04-12T15:14:52;10.60;99.90
65536;DHT22;52145;49.342;9.116;2023-04-12T15:17:18;10.60;99.90
65536;DHT22;52145;49.342;9.116;2023-04-12T15:19:44;10.50;99.90
65536;DHT22;52145;49.342;9.116;2023-04-12T15:22:10;10.50;99.90
65536;DHT22;52145;49.342;9.116;2023-04-12T15:24:36;10.50;99.90
65536;DHT22;52145;49.342;9.116;2023-04-12T15:27:03;10.60;99.90
65536;DHT22;52145;49.342;9.116;2023-04-12T15:29:29;10.70;99.90
65536;DHT22;52145;49.342;9.116;2023-04-12T15:31:55;10.80;99.90
65536;DHT22;52145;49.342;9.116;2023-04-12T15:34:20;10.90;99.90
65536;DHT22;52145;49.342;9.116;2023-04-12T15:36:48;11.20;99.90
65536;DHT22;52145;49.342;9.116;2023-04-12T15:39:13;11.60;99.90
65536;DHT22;52145;49.342;9.116;2023-04-12T15:41:39;12.20;99.90
65536;DHT22;52145;49.342;9.116;2023-04-12T15:44:08;12.30;99.90
65536;DHT22;52145;49.342;9.116;2023-04-12T15:46:34;12.00;99.90
65536;DHT22;52145;49.342;9.116;2023-04-12T15:49:00;12.00;99.90
65536;DHT22;52145;49.342;9.116;2023-04-12T15:51:27;12.10;99.90
65536;DHT22;52145;49.342;9.116;2023-04-12T15:53:53;12.10;99.90
65536;DHT22;52145;49.342;9.116;2023-04-12T15:56:19;12.20;99.90
65536;DHT22;52145;49.342;9.116;2023-04-12T15:58:55;12.70;99.90
65536;DHT22;52145;49.342;9.116;2023-04-12T16:01:22;13.20;99.90
65536;DHT22;52145;49.342;9.116;2023-04-12T16:03:47;13.00;99.90
65536;DHT22;52145;49.342;9.116;2023-04-12T16:06:14;13.00;99.90